Time;durP1;ratioP1;P1;durP2;ratioP2;P2;SDS_P1;SDS_P2;PMS_P1;PMS_P2;Temp;Humidity;BMP_temperature;BMP_pressure;BME280_temperature;BME280_humidity;BME280_pressure;Samples;Min_cycle;Max_cycle;Signal;HPM_P1;HPM_P2
2023/07/31 00:00:35;;;;;;;6.32;3.70;;;22.70;75.10;;;;;;4997817;28;20109;-66
2023/07/31 00:03:01;;;;;;;6.65;3.78;;;22.70;75.20;;;;;;4998009;28;20054;-67
2023/07/31 00:05:27;;;;;;;5.03;3.78;;;22.80;75.20;;;;;;4997715;28;20037;-64
2023/07/31 00:07:54;;;;;;;5.50;4.03;;;22.80;75.20;;;;;;4997589;28;20026;-66
2023/07/31 00:10:21;;;;;;;3.55;3.17;;;22.80;75.10;;;;;;4996635;28;20380;-66
2023/07/31 00:12:47;;;;;;;9.13;3.92;;;22.90;75.10;;;;;;4997313;28;20042;-62
2023/07/31 00:15:14;;;;;;;4.32;3.50;;;22.90;75.00;;;;;;4997475;28;20030;-61
2023/07/31 00:17:40;;;;;;;4.93;3.85;;;22.90;75.00;;;;;;4997412;28;20045;-58
2023/07/31 00:20:07;;;;;;;5.50;3.50;;;22.90;75.00;;;;;;4997925;28;20084;-63
2023/07/31 00:22:33;;;;;;;4.20;3.65;;;22.90;75.00;;;;;;4997451;28;20026;-61
2023/07/31 00:24:59;;;;;;;4.35;3.67;;;22.90;75.10;;;;;;4997807;28;20038;-58
2023/07/31 00:27:25;;;;;;;3.75;3.38;;;22.90;75.10;;;;;;4997415;28;20030;-63
2023/07/31 00:29:51;;;;;;;5.75;3.60;;;22.90;75.20;;;;;;4997238;28;20360;-60
2023/07/31 00:32:17;;;;;;;5.30;3.83;;;22.90;75.20;;;;;;4997162;28;20030;-66
2023/07/31 00:34:43;;;;;;;4.65;4.05;;;23.00;75.30;;;;;;4997655;28;20344;-60
2023/07/31 00:37:09;;;;;;;5.35;4.30;;;23.00;75.30;;;;;;4997599;28;20026;-65
2023/07/31 00:39:36;;;;;;;5.95;3.75;;;23.00;75.50;;;;;;4997094;28;20105;-66
2023/07/31 00:42:02;;;;;;;5.15;4.05;;;23.00;75.50;;;;;;4997013;28;20473;-64
2023/07/31 00:44:28;;;;;;;6.47;4.10;;;23.00;75.60;;;;;;4997495;28;20100;-60
2023/07/31 00:46:56;;;;;;;6.88;4.57;;;23.00;75.50;;;;;;4996801;28;20404;-61
2023/07/31 00:49:23;;;;;;;6.97;4.85;;;22.90;75.50;;;;;;4996849;28;20468;-58
2023/07/31 00:51:49;;;;;;;8.13;4.32;;;22.90;75.40;;;;;;5012234;28;20045;-62
2023/07/31 00:54:15;;;;;;;7.15;4.40;;;22.90;75.40;;;;;;4996829;28;20033;-61
2023/07/31 00:56:44;;;;;;;5.93;4.70;;;22.90;75.40;;;;;;4996666;28;20165;-63
2023/07/31 00:59:10;;;;;;;6.60;4.32;;;22.90;75.40;;;;;;4996664;28;20057;-63
2023/07/31 01:01:36;;;;;;;9.10;4.80;;;22.80;75.40;;;;;;4996900;28;20034;-66
2023/07/31 01:04:02;;;;;;;6.80;4.55;;;22.80;75.40;;;;;;4996858;28;20034;-65
2023/07/31 01:06:51;;;;;;;6.25;4.55;;;22.80;75.40;;;;;;4996468;28;20125;-63
2023/07/31 01:09:32;;;;;;;8.38;4.70;;;22.70;75.50;;;;;;4996228;28;20027;-60
2023/07/31 01:12:02;;;;;;;6.60;4.90;;;22.70;75.60;;;;;;4996633;28;20477;-60
2023/07/31 01:14:28;;;;;;;7.07;4.57;;;22.60;75.50;;;;;;4995892;28;20057;-66
2023/07/31 01:16:55;;;;;;;5.85;5.00;;;22.60;75.50;;;;;;4996813;28;20100;-62
2023/07/31 01:19:27;;;;;;;5.22;4.63;;;22.60;75.50;;;;;;4996376;28;20388;-63
2023/07/31 01:22:26;;;;;;;5.35;4.30;;;22.60;75.60;;;;;;4996214;28;20026;-62
2023/07/31 01:25:10;;;;;;;6.95;5.25;;;22.50;75.60;;;;;;4974868;28;20038;-59
2023/07/31 01:27:44;;;;;;;5.10;4.53;;;22.50;75.60;;;;;;4975283;28;20035;-64
2023/07/31 01:30:16;;;;;;;7.30;5.03;;;22.50;75.60;;;;;;4975332;28;20062;-61
2023/07/31 01:32:47;;;;;;;6.00;4.70;;;22.50;75.60;;;;;;4975036;28;20026;-61
2023/07/31 01:35:13;;;;;;;4.97;4.30;;;22.50;75.70;;;;;;4975509;28;20062;-61
2023/07/31 01:37:40;;;;;;;5.03;4.50;;;22.40;75.70;;;;;;4974817;28;20047;-61
2023/07/31 01:40:07;;;;;;;5.90;4.20;;;22.40;75.80;;;;;;4975414;28;20039;-59
2023/07/31 01:42:33;;;;;;;5.50;4.40;;;22.40;75.80;;;;;;4974888;28;20035;-64
2023/07/31 01:44:59;;;;;;;4.63;4.22;;;22.40;75.80;;;;;;4974893;28;20034;-66
2023/07/31 01:47:25;;;;;;;5.65;4.70;;;22.40;75.80;;;;;;4975037;28;20050;-65
2023/07/31 01:49:51;;;;;;;8.20;4.53;;;22.40;75.70;;;;;;4975054;28;20039;-60
2023/07/31 01:52:17;;;;;;;7.25;4.88;;;22.40;75.70;;;;;;4974786;28;20082;-62
2023/07/31 01:54:43;;;;;;;5.78;4.57;;;22.40;75.70;;;;;;4975193;28;20397;-65
2023/07/31 01:57:09;;;;;;;5.90;4.82;;;22.40;75.70;;;;;;4974937;28;20031;-60
2023/07/31 01:59:35;;;;;;;5.63;5.00;;;22.40;75.70;;;;;;4978169;28;20121;-63
2023/07/31 02:02:01;;;;;;;6.50;5.07;;;22.40;75.60;;;;;;4995815;28;20105;-66
2023/07/31 02:04:27;;;;;;;6.07;5.07;;;22.40;75.50;;;;;;4995763;28;20045;-65
2023/07/31 02:06:53;;;;;;;4.75;4.25;;;22.40;75.60;;;;;;4995786;28;20015;-58
2023/07/31 02:09:20;;;;;;;5.20;4.70;;;22.40;75.60;;;;;;4995724;28;20049;-64
2023/07/31 02:11:46;;;;;;;6.80;5.32;;;22.40;75.60;;;;;;4995519;28;20058;-61
2023/07/31 02:14:12;;;;;;;6.28;5.28;;;22.40;75.60;;;;;;4995620;28;20058;-63
2023/07/31 02:16:38;;;;;;;5.65;5.00;;;22.40;75.50;;;;;;4995839;28;20033;-65
2023/07/31 02:19:04;;;;;;;5.63;4.97;;;22.40;75.60;;;;;;4995630;28;20097;-59
2023/07/31 02:21:30;;;;;;;5.80;5.05;;;22.40;75.60;;;;;;4996122;28;20031;-61
2023/07/31 02:23:56;;;;;;;6.22;5.20;;;22.40;75.70;;;;;;4995579;28;20102;-63
2023/07/31 02:26:22;;;;;;;5.75;4.75;;;22.40;75.60;;;;;;4995988;28;20432;-61
2023/07/31 02:28:48;;;;;;;7.78;5.05;;;22.40;75.60;;;;;;4995550;28;20037;-64
2023/07/31 02:31:14;;;;;;;6.40;4.97;;;22.30;75.60;;;;;;4996089;28;20317;-61
2023/07/31 02:33:40;;;;;;;6.47;4.90;;;22.30;75.70;;;;;;4995771;28;20035;-66
2023/07/31 02:36:06;;;;;;;5.15;4.65;;;22.30;75.70;;;;;;4995813;28;20033;-65
2023/07/31 02:38:32;;;;;;;5.88;4.60;;;22.30;75.70;;;;;;4999294;28;20026;-59
2023/07/31 02:40:58;;;;;;;5.55;4.97;;;22.30;75.70;;;;;;4999638;28;20026;-60
2023/07/31 02:43:24;;;;;;;5.38;4.63;;;22.30;75.70;;;;;;4999822;28;20041;-65
2023/07/31 02:45:53;;;;;;;6.22;4.47;;;22.30;75.80;;;;;;4999502;28;20472;-61
2023/07/31 02:48:19;;;;;;;5.05;4.32;;;22.30;75.90;;;;;;4999776;28;20046;-59
2023/07/31 02:50:46;;;;;;;5.57;4.75;;;22.30;76.00;;;;;;4999376;28;20022;-66
2023/07/31 02:53:12;;;;;;;5.15;4.40;;;22.30;76.00;;;;;;4999081;28;20038;-61
2023/07/31 02:55:38;;;;;;;6.65;4.97;;;22.20;76.00;;;;;;4999602;28;20019;-62
2023/07/31 02:58:04;;;;;;;6.93;4.60;;;22.20;76.00;;;;;;4999183;28;20114;-61
2023/07/31 03:00:30;;;;;;;6.25;4.13;;;22.20;76.10;;;;;;4998985;28;20026;-63
2023/07/31 03:02:56;;;;;;;5.50;4.88;;;22.10;76.10;;;;;;4998304;28;20026;-63
2023/07/31 03:05:23;;;;;;;5.78;4.70;;;22.20;76.20;;;;;;4999138;28;20341;-65
2023/07/31 03:07:49;;;;;;;5.95;4.63;;;22.10;76.30;;;;;;4998758;28;20034;-59
2023/07/31 03:10:15;;;;;;;7.10;5.10;;;22.20;76.40;;;;;;4998779;28;20345;-65
2023/07/31 03:12:41;;;;;;;6.47;4.93;;;22.10;76.40;;;;;;4998598;28;20048;-64
2023/07/31 03:15:07;;;;;;;5.20;4.38;;;22.10;76.40;;;;;;4998979;28;20029;-60
2023/07/31 03:17:33;;;;;;;5.13;4.63;;;22.10;76.40;;;;;;4998821;28;20121;-61
2023/07/31 03:19:59;;;;;;;6.03;4.88;;;22.10;76.40;;;;;;4999153;28;20026;-60
2023/07/31 03:22:25;;;;;;;9.43;5.18;;;22.10;76.40;;;;;;4997580;28;20042;-58
2023/07/31 03:24:51;;;;;;;6.50;4.82;;;22.00;76.40;;;;;;4998545;28;20101;-63
2023/07/31 03:27:18;;;;;;;6.47;5.25;;;22.10;76.20;;;;;;4998616;28;20400;-63
2023/07/31 03:29:44;;;;;;;6.72;5.35;;;22.00;76.10;;;;;;4998435;28;20444;-63
2023/07/31 03:32:10;;;;;;;6.40;5.57;;;22.10;76.00;;;;;;4998707;28;20031;-62
2023/07/31 03:34:37;;;;;;;7.40;5.35;;;22.00;75.90;;;;;;4998596;28;20105;-64
2023/07/31 03:37:04;;;;;;;7.13;5.30;;;22.00;75.90;;;;;;4997254;28;20077;-63
2023/07/31 03:39:30;;;;;;;6.25;5.65;;;22.00;75.90;;;;;;4998488;28;20027;-66
2023/07/31 03:41:57;;;;;;;8.15;5.95;;;22.00;75.90;;;;;;4998409;28;20023;-63
2023/07/31 03:44:23;;;;;;;5.80;5.20;;;21.90;75.90;;;;;;4998415;28;20053;-65
2023/07/31 03:46:49;;;;;;;6.60;5.85;;;21.90;75.90;;;;;;4997998;28;20076;-62
2023/07/31 03:49:15;;;;;;;6.75;5.65;;;21.90;75.90;;;;;;4997725;28;20023;-60
2023/07/31 03:51:41;;;;;;;7.80;5.43;;;21.90;75.90;;;;;;4998068;28;20019;-64
2023/07/31 03:54:07;;;;;;;6.38;5.68;;;21.90;75.80;;;;;;4998261;28;20041;-59
2023/07/31 03:56:33;;;;;;;6.88;4.90;;;21.90;75.80;;;;;;4998153;28;20022;-59
2023/07/31 03:59:00;;;;;;;7.28;5.70;;;21.90;75.80;;;;;;4997887;28;20366;-63
2023/07/31 04:01:26;;;;;;;7.15;5.68;;;21.90;75.80;;;;;;4997862;28;20026;-62
2023/07/31 04:03:52;;;;;;;6.38;5.50;;;21.90;75.80;;;;;;4997806;28;20034;-64
2023/07/31 04:06:18;;;;;;;6.18;5.57;;;21.90;75.80;;;;;;4997742;28;20022;-64
2023/07/31 04:08:45;;;;;;;6.80;5.68;;;21.90;75.80;;;;;;4997552;28;20034;-61
2023/07/31 04:11:12;;;;;;;7.32;5.65;;;21.80;75.80;;;;;;4997664;28;20038;-61
2023/07/31 04:13:38;;;;;;;5.07;4.53;;;21.90;75.70;;;;;;4997636;28;20030;-60
2023/07/31 04:16:04;;;;;;;6.38;5.20;;;21.90;75.70;;;;;;4997880;28;20034;-60
2023/07/31 04:18:31;;;;;;;6.07;4.88;;;21.90;75.70;;;;;;4997445;28;20474;-65
2023/07/31 04:20:58;;;;;;;7.90;5.35;;;21.90;75.60;;;;;;4997759;28;20030;-66
2023/07/31 04:23:26;;;;;;;6.75;5.05;;;21.90;75.50;;;;;;4997686;28;20030;-62
2023/07/31 04:25:52;;;;;;;6.93;5.22;;;21.90;75.50;;;;;;4997371;28;20530;-61
2023/07/31 04:28:18;;;;;;;8.32;5.30;;;21.90;75.40;;;;;;4997283;28;20022;-64
2023/07/31 04:30:44;;;;;;;6.05;5.10;;;22.00;75.40;;;;;;4997606;28;20077;-63
2023/07/31 04:33:10;;;;;;;7.72;5.18;;;22.00;75.30;;;;;;4997326;28;20026;-61
2023/07/31 04:35:36;;;;;;;5.30;4.60;;;22.10;75.20;;;;;;4997079;28;20030;-60
2023/07/31 04:38:02;;;;;;;9.23;5.10;;;22.10;75.20;;;;;;4997082;28;20030;-61
2023/07/31 04:40:28;;;;;;;5.97;4.65;;;22.20;75.10;;;;;;4997364;28;20030;-63
2023/07/31 04:42:54;;;;;;;6.60;5.20;;;22.20;75.00;;;;;;4997377;28;20038;-63
2023/07/31 04:45:20;;;;;;;7.07;5.13;;;22.30;74.90;;;;;;4997578;28;20101;-63
2023/07/31 04:47:46;;;;;;;7.57;5.03;;;22.40;74.70;;;;;;4996879;28;20089;-62
2023/07/31 04:50:12;;;;;;;7.20;5.07;;;22.80;74.50;;;;;;4997226;28;20069;-63
2023/07/31 04:52:39;;;;;;;7.13;5.00;;;23.40;73.90;;;;;;4996057;28;20022;-61
2023/07/31 04:55:05;;;;;;;6.20;4.65;;;24.40;72.00;;;;;;4996897;28;20101;-60
2023/07/31 04:57:31;;;;;;;5.28;4.38;;;25.50;70.10;;;;;;4995980;28;20026;-64
2023/07/31 04:59:56;;;;;;;5.63;4.13;;;26.60;67.20;;;;;;4996039;28;20465;-62
2023/07/31 05:02:23;;;;;;;5.10;3.85;;;27.60;64.70;;;;;;4996664;28;20512;-63
2023/07/31 05:04:48;;;;;;;5.47;3.90;;;28.60;62.70;;;;;;4996971;28;20349;-63
2023/07/31 05:07:15;;;;;;;4.45;3.50;;;29.70;60.70;;;;;;4996756;28;20441;-63
2023/07/31 05:09:41;;;;;;;5.75;3.60;;;30.70;58.30;;;;;;4996547;28;20441;-67
2023/07/31 05:12:07;;;;;;;3.97;3.20;;;31.60;55.90;;;;;;4996376;28;20038;-66
2023/07/31 05:14:33;;;;;;;5.03;3.53;;;32.40;53.80;;;;;;4996760;28;20033;-62
2023/07/31 05:16:59;;;;;;;4.82;3.38;;;33.20;52.20;;;;;;4996927;28;20421;-64
2023/07/31 05:19:25;;;;;;;6.45;3.20;;;33.90;50.60;;;;;;4996442;28;20030;-64
2023/07/31 05:21:51;;;;;;;3.58;3.28;;;34.50;48.80;;;;;;4996460;28;20022;-66
2023/07/31 05:24:17;;;;;;;3.95;3.58;;;35.00;46.80;;;;;;4996726;28;20080;-66
2023/07/31 05:26:43;;;;;;;3.40;3.10;;;35.50;45.60;;;;;;4996482;28;20027;-64
2023/07/31 05:29:10;;;;;;;3.80;3.08;;;35.90;44.90;;;;;;4996727;28;20045;-64
2023/07/31 05:31:36;;;;;;;3.38;3.05;;;36.40;44.10;;;;;;4996203;28;20026;-60
2023/07/31 05:34:02;;;;;;;4.63;2.72;;;36.70;43.20;;;;;;4995261;28;20165;-62
2023/07/31 05:36:28;;;;;;;4.07;2.90;;;37.00;42.80;;;;;;4997130;28;20076;-65
2023/07/31 05:38:54;;;;;;;3.45;2.78;;;37.60;41.90;;;;;;4996166;28;20487;-65
2023/07/31 05:41:20;;;;;;;3.10;2.80;;;38.00;40.80;;;;;;4996079;28;20042;-66
2023/07/31 05:43:46;;;;;;;3.15;2.85;;;38.50;39.60;;;;;;4996298;28;20023;-64
2023/07/31 05:46:12;;;;;;;4.20;2.75;;;38.70;39.00;;;;;;4995036;28;20373;-65
2023/07/31 05:48:38;;;;;;;3.40;2.88;;;39.10;38.40;;;;;;4995793;28;20030;-65
2023/07/31 05:51:04;;;;;;;3.67;2.80;;;39.60;37.90;;;;;;4995957;28;20097;-63
2023/07/31 05:53:30;;;;;;;2.92;2.63;;;39.90;37.30;;;;;;4996428;28;20475;-63
2023/07/31 05:55:56;;;;;;;3.22;2.63;;;40.20;36.70;;;;;;4995910;28;20449;-64
2023/07/31 05:58:23;;;;;;;2.80;2.60;;;40.60;36.40;;;;;;4995781;28;20030;-61
2023/07/31 06:00:49;;;;;;;5.30;2.85;;;40.80;35.90;;;;;;4995862;28;20034;-63
2023/07/31 06:03:15;;;;;;;2.67;2.47;;;40.90;35.70;;;;;;4994936;28;20023;-61
2023/07/31 06:05:41;;;;;;;4.47;2.67;;;40.90;35.50;;;;;;4994722;28;20034;-65
2023/07/31 06:08:08;;;;;;;2.65;2.45;;;41.00;35.40;;;;;;4994746;28;20018;-63
2023/07/31 06:10:34;;;;;;;2.47;2.28;;;41.30;35.40;;;;;;4995958;28;20030;-66
2023/07/31 06:13:00;;;;;;;3.30;2.30;;;41.90;35.10;;;;;;5001871;28;20456;-65
2023/07/31 06:15:26;;;;;;;4.32;2.28;;;42.70;34.40;;;;;;5002165;28;20045;-62
2023/07/31 06:17:52;;;;;;;3.08;2.60;;;43.50;33.40;;;;;;5002345;28;20097;-62
2023/07/31 06:20:19;;;;;;;2.83;2.60;;;44.10;32.40;;;;;;5002350;28;20489;-64
2023/07/31 06:22:45;;;;;;;2.60;2.40;;;44.70;32.10;;;;;;5002049;28;20105;-61
2023/07/31 06:25:12;;;;;;;2.58;2.38;;;45.30;31.40;;;;;;5002539;28;20080;-65
2023/07/31 06:27:38;;;;;;;3.47;2.33;;;45.70;30.80;;;;;;5001826;28;20054;-64
2023/07/31 06:30:04;;;;;;;2.60;2.20;;;45.80;30.70;;;;;;5002013;28;20030;-63
2023/07/31 06:32:30;;;;;;;2.85;2.15;;;45.90;30.90;;;;;;5000921;28;20026;-62
2023/07/31 06:34:57;;;;;;;4.22;2.38;;;46.40;30.80;;;;;;5001971;28;20030;-64
2023/07/31 06:37:23;;;;;;;3.83;2.30;;;46.50;30.20;;;;;;5002021;28;20097;-65
2023/07/31 06:39:49;;;;;;;4.50;2.30;;;46.40;30.30;;;;;;5002098;28;20054;-63
2023/07/31 06:42:15;;;;;;;4.82;2.03;;;46.50;29.80;;;;;;5002333;28;20117;-61
2023/07/31 06:44:41;;;;;;;2.63;2.30;;;46.40;29.40;;;;;;5001764;28;20041;-65
2023/07/31 06:47:08;;;;;;;3.58;2.42;;;45.80;29.20;;;;;;5001849;28;20026;-64
2023/07/31 06:49:34;;;;;;;2.25;2.05;;;44.90;29.30;;;;;;5000748;28;20072;-62
2023/07/31 06:52:00;;;;;;;2.80;2.38;;;44.40;29.20;;;;;;5001945;28;20022;-62
2023/07/31 06:54:26;;;;;;;3.47;2.10;;;44.10;29.10;;;;;;5002196;28;20414;-64
2023/07/31 06:56:52;;;;;;;4.18;2.30;;;43.80;29.30;;;;;;5001851;28;20448;-65
2023/07/31 06:59:18;;;;;;;2.30;2.10;;;43.60;29.40;;;;;;5001855;28;20392;-69
2023/07/31 07:01:44;;;;;;;2.58;2.25;;;42.90;29.70;;;;;;5001798;28;20081;-66
2023/07/31 07:04:10;;;;;;;2.20;2.00;;;42.00;30.40;;;;;;5001967;28;20037;-65
2023/07/31 07:06:36;;;;;;;2.67;2.13;;;40.90;31.70;;;;;;5000664;28;20026;-68
2023/07/31 07:09:03;;;;;;;3.10;2.13;;;39.90;33.20;;;;;;5000603;28;20037;-64
2023/07/31 07:11:29;;;;;;;2.92;2.00;;;38.90;34.30;;;;;;5001685;28;20046;-66
2023/07/31 07:13:55;;;;;;;3.17;2.13;;;37.90;35.50;;;;;;5001639;28;20018;-60
2023/07/31 07:16:21;;;;;;;2.30;2.10;;;37.10;36.70;;;;;;5001517;28;20022;-66
2023/07/31 07:18:47;;;;;;;2.50;2.30;;;36.60;37.40;;;;;;5002077;28;20034;-62
2023/07/31 07:21:15;;;;;;;2.30;2.10;;;36.10;38.10;;;;;;5002053;28;20029;-66
2023/07/31 07:23:43;;;;;;;2.35;2.15;;;35.60;38.90;;;;;;4998813;28;20126;-61
2023/07/31 07:26:09;;;;;;;2.60;1.85;;;35.20;39.10;;;;;;4998445;28;20033;-68
2023/07/31 07:28:37;;;;;;;4.00;2.10;;;34.80;39.40;;;;;;4998470;28;20034;-68
2023/07/31 07:31:03;;;;;;;2.92;2.30;;;34.40;39.90;;;;;;4998348;28;20034;-64
2023/07/31 07:33:29;;;;;;;2.50;2.22;;;34.10;40.30;;;;;;4998585;28;20030;-65
2023/07/31 07:35:55;;;;;;;2.20;2.00;;;33.80;40.80;;;;;;4999196;28;20042;-63
2023/07/31 07:38:21;;;;;;;3.88;1.95;;;33.60;41.00;;;;;;4998681;28;20452;-64
2023/07/31 07:40:50;;;;;;;3.67;1.83;;;33.40;41.00;;;;;;4998214;28;20121;-66
2023/07/31 07:43:16;;;;;;;3.28;2.00;;;33.10;41.40;;;;;;5002816;28;20083;-63
2023/07/31 07:45:42;;;;;;;2.58;2.00;;;32.90;41.20;;;;;;4998296;28;20033;-64
2023/07/31 07:48:08;;;;;;;3.10;1.75;;;32.70;41.60;;;;;;4998283;28;20364;-66
2023/07/31 07:51:34;;;;;;;3.92;1.80;;;32.60;42.80;;;;;;5000722;28;20044;-68
2023/07/31 07:54:00;;;;;;;2.30;1.80;;;32.50;42.30;;;;;;4998051;28;20046;-65
2023/07/31 07:56:27;;;;;;;3.35;2.10;;;32.40;42.50;;;;;;4997971;28;20527;-62
2023/07/31 08:02:16;;;;;;;2.50;1.98;;;32.10;42.80;;;;;;5004755;26;20080;-61
2023/07/31 08:04:42;;;;;;;2.20;2.00;;;31.90;43.00;;;;;;5008865;28;20062;-60
2023/07/31 08:07:12;;;;;;;2.40;2.20;;;31.70;43.60;;;;;;5010583;23;20037;-64
2023/07/31 08:09:39;;;;;;;3.03;1.90;;;31.50;44.20;;;;;;4985635;28;20039;-65
2023/07/31 08:12:06;;;;;;;2.13;1.95;;;31.40;44.60;;;;;;4982654;28;20345;-67
2023/07/31 08:14:35;;;;;;;3.05;2.22;;;31.20;45.00;;;;;;4983746;28;20037;-68
2023/07/31 08:17:02;;;;;;;4.30;2.30;;;31.10;45.60;;;;;;4982478;28;20015;-62
2023/07/31 08:19:28;;;;;;;3.63;2.20;;;31.10;46.10;;;;;;4983813;28;20090;-68
2023/07/31 08:21:54;;;;;;;2.92;2.20;;;31.00;46.20;;;;;;4984256;28;20019;-62
2023/07/31 08:24:20;;;;;;;2.47;2.08;;;30.90;45.90;;;;;;4980868;28;20106;-68
2023/07/31 08:26:47;;;;;;;2.95;2.10;;;30.90;45.90;;;;;;4984378;28;20050;-70
2023/07/31 08:29:13;;;;;;;3.28;2.10;;;30.90;46.40;;;;;;4983740;28;20027;-70
2023/07/31 08:31:39;;;;;;;3.63;2.08;;;31.00;46.70;;;;;;4991402;28;20065;-62
2023/07/31 08:34:14;;;;;;;2.63;2.10;;;31.10;46.10;;;;;;4986373;28;20019;-59
2023/07/31 08:36:40;;;;;;;2.60;2.13;;;31.10;46.60;;;;;;4987862;28;20035;-66
2023/07/31 08:39:16;;;;;;;2.45;2.20;;;31.10;46.40;;;;;;4982799;28;20066;-65
2023/07/31 08:42:13;;;;;;;3.40;2.25;;;31.10;46.70;;;;;;4987741;28;20035;-65
2023/07/31 08:44:43;;;;;;;3.58;2.28;;;31.10;46.90;;;;;;4982408;28;20034;-65
2023/07/31 08:47:10;;;;;;;3.17;2.33;;;31.00;47.10;;;;;;4978066;28;20022;-67
2023/07/31 08:49:38;;;;;;;2.20;2.00;;;30.90;46.50;;;;;;4978113;28;20078;-60
2023/07/31 08:52:10;;;;;;;3.15;2.22;;;30.80;46.90;;;;;;4977580;28;20464;-69
2023/07/31 08:54:37;;;;;;;3.10;2.30;;;30.70;47.30;;;;;;4978097;28;20032;-69
2023/07/31 08:57:05;;;;;;;3.15;2.40;;;30.70;47.50;;;;;;4977922;28;20026;-65
2023/07/31 08:59:34;;;;;;;2.38;2.15;;;30.70;48.30;;;;;;4977463;28;20061;-66
2023/07/31 09:02:06;;;;;;;4.53;2.00;;;30.70;47.30;;;;;;4977403;28;20441;-65
2023/07/31 09:04:33;;;;;;;4.63;2.17;;;30.70;47.20;;;;;;4976353;28;20033;-64
2023/07/31 09:07:03;;;;;;;3.90;2.20;;;30.60;45.90;;;;;;4976275;28;20037;-66
2023/07/31 09:09:30;;;;;;;2.05;1.80;;;30.40;47.00;;;;;;4977428;28;20053;-64
2023/07/31 09:11:57;;;;;;;2.47;2.10;;;30.40;47.50;;;;;;4976308;28;20341;-66
2023/07/31 09:14:25;;;;;;;2.95;1.92;;;30.30;47.50;;;;;;4977349;28;20081;-65
2023/07/31 09:16:53;;;;;;;2.72;2.20;;;30.20;47.60;;;;;;4959948;28;20334;-65
2023/07/31 09:19:27;;;;;;;3.65;1.80;;;30.30;48.10;;;;;;4977606;28;20477;-63
2023/07/31 09:21:53;;;;;;;3.08;2.30;;;30.50;47.20;;;;;;4977125;28;20039;-65
2023/07/31 09:24:30;;;;;;;3.13;2.22;;;30.50;46.90;;;;;;4977254;28;20027;-66
2023/07/31 09:26:57;;;;;;;5.40;2.25;;;30.50;47.20;;;;;;4976344;28;20049;-65
2023/07/31 09:29:24;;;;;;;2.20;2.00;;;30.50;47.00;;;;;;4977153;28;20026;-63
2023/07/31 09:31:50;;;;;;;2.88;2.03;;;30.50;47.50;;;;;;4976875;28;20041;-67
2023/07/31 09:34:16;;;;;;;2.83;1.90;;;30.40;46.90;;;;;;4977158;28;20014;-63
2023/07/31 09:36:45;;;;;;;2.25;2.03;;;30.30;46.70;;;;;;4977264;28;20027;-66
2023/07/31 09:39:12;;;;;;;2.85;2.08;;;30.20;46.90;;;;;;4976959;28;20113;-66
2023/07/31 09:41:43;;;;;;;2.70;2.30;;;30.10;47.00;;;;;;4977059;28;20101;-63
2023/07/31 09:44:09;;;;;;;2.30;1.80;;;30.00;47.20;;;;;;4977314;28;20027;-68
2023/07/31 09:46:39;;;;;;;3.28;2.13;;;29.90;47.40;;;;;;4976671;28;20039;-67
2023/07/31 09:49:09;;;;;;;3.55;1.88;;;30.00;47.80;;;;;;4976868;28;20038;-67
2023/07/31 09:51:39;;;;;;;3.80;2.00;;;29.90;47.50;;;;;;4976891;28;20126;-62
2023/07/31 09:54:12;;;;;;;3.78;1.75;;;29.80;48.10;;;;;;4975956;28;20018;-63
2023/07/31 09:56:45;;;;;;;4.80;2.00;;;29.80;48.00;;;;;;4977370;28;20078;-63
2023/07/31 09:59:20;;;;;;;3.33;1.98;;;29.80;48.30;;;;;;4976715;28;20035;-62
2023/07/31 10:01:46;;;;;;;4.47;2.30;;;29.90;48.20;;;;;;4976840;28;20351;-64
2023/07/31 10:04:14;;;;;;;3.75;1.95;;;30.00;48.30;;;;;;4975483;28;20489;-63
2023/07/31 10:06:43;;;;;;;2.63;2.10;;;30.00;48.00;;;;;;4976701;28;20035;-64
2023/07/31 10:09:14;;;;;;;2.85;2.00;;;29.90;48.10;;;;;;4976244;28;20082;-63
2023/07/31 10:11:51;;;;;;;3.67;2.22;;;29.90;48.40;;;;;;4976960;28;20023;-64
2023/07/31 10:14:21;;;;;;;2.00;1.67;;;29.90;48.40;;;;;;4976994;28;20027;-66
2023/07/31 10:16:48;;;;;;;3.45;2.17;;;29.90;48.30;;;;;;4977061;28;20035;-67
2023/07/31 10:19:14;;;;;;;5.18;2.13;;;30.00;48.30;;;;;;4977461;28;20035;-61
2023/07/31 10:21:42;;;;;;;4.82;2.00;;;30.10;48.40;;;;;;4976979;28;20441;-66
2023/07/31 10:24:09;;;;;;;2.47;2.10;;;30.00;48.10;;;;;;4975723;28;20031;-66
2023/07/31 10:26:37;;;;;;;3.65;2.17;;;30.10;48.20;;;;;;4978169;28;20531;-65
2023/07/31 10:29:04;;;;;;;2.08;1.88;;;30.10;48.10;;;;;;4976644;28;20019;-64
2023/07/31 10:31:31;;;;;;;2.92;2.22;;;30.20;48.40;;;;;;4977200;28;20465;-71
2023/07/31 10:33:59;;;;;;;4.18;2.22;;;30.20;47.90;;;;;;4979392;28;20027;-68
2023/07/31 10:36:26;;;;;;;2.25;2.05;;;30.10;47.90;;;;;;4982444;28;20054;-71
2023/07/31 10:38:55;;;;;;;2.60;1.90;;;30.10;47.70;;;;;;4976781;28;20031;-66
2023/07/31 10:41:31;;;;;;;3.15;2.00;;;30.10;47.90;;;;;;4977622;28;20035;-62
2023/07/31 10:43:59;;;;;;;2.50;2.20;;;30.20;48.10;;;;;;4978765;28;20037;-69
2023/07/31 10:46:28;;;;;;;3.50;2.20;;;30.20;47.90;;;;;;4977834;28;20045;-65
2023/07/31 10:49:02;;;;;;;3.70;2.25;;;30.30;47.90;;;;;;4976725;28;20082;-69
2023/07/31 10:51:35;;;;;;;2.58;2.00;;;30.30;47.90;;;;;;4976635;28;20445;-66
2023/07/31 10:54:18;;;;;;;3.78;1.98;;;30.40;48.70;;;;;;4976939;28;20073;-67
2023/07/31 10:59:13;;;;;;;1.85;1.70;;;30.40;47.70;;;;;;4977855;28;19917;-68
2023/07/31 11:02:03;;;;;;;1.70;1.60;;;30.40;47.60;;;;;;4979978;28;20023;-70
2023/07/31 11:04:31;;;;;;;2.67;2.15;;;30.40;46.60;;;;;;4979292;28;20362;-67
2023/07/31 11:06:59;;;;;;;3.67;1.92;;;30.30;47.50;;;;;;4979295;28;20035;-66
2023/07/31 11:09:32;;;;;;;2.20;2.00;;;30.40;47.10;;;;;;4980248;28;20041;-66
2023/07/31 11:11:59;;;;;;;2.15;1.95;;;30.40;47.60;;;;;;4979706;28;20034;-60
2023/07/31 11:14:27;;;;;;;3.45;2.03;;;30.40;47.30;;;;;;4979570;28;20125;-69
2023/07/31 11:16:53;;;;;;;2.10;1.90;;;30.40;47.40;;;;;;4979370;28;20441;-66
2023/07/31 11:19:23;;;;;;;3.03;2.05;;;30.50;47.60;;;;;;4979286;28;20034;-64
2023/07/31 11:21:51;;;;;;;2.10;1.90;;;30.50;47.80;;;;;;4979171;28;20406;-63
2023/07/31 11:24:17;;;;;;;2.15;1.95;;;30.50;47.90;;;;;;4979150;28;20062;-66
2023/07/31 11:26:51;;;;;;;2.38;1.95;;;30.50;47.80;;;;;;4978066;28;20030;-65
2023/07/31 11:29:18;;;;;;;1.77;1.60;;;30.50;47.80;;;;;;4968981;28;20071;-64
2023/07/31 11:31:45;;;;;;;3.28;2.00;;;30.50;47.90;;;;;;4959541;28;20037;-62
2023/07/31 11:34:11;;;;;;;3.05;2.40;;;30.50;47.90;;;;;;4960181;28;20037;-61
2023/07/31 11:36:37;;;;;;;2.15;1.95;;;30.40;48.10;;;;;;4958933;29;20353;-59
2023/07/31 11:39:07;;;;;;;3.72;2.00;;;30.40;48.10;;;;;;4974592;28;20031;-60
2023/07/31 11:41:33;;;;;;;2.28;1.90;;;30.50;48.20;;;;;;4960069;28;20035;-60
2023/07/31 11:44:02;;;;;;;2.53;1.83;;;30.50;48.30;;;;;;4959510;28;20046;-62
2023/07/31 11:46:30;;;;;;;2.83;1.90;;;30.50;48.30;;;;;;4959629;29;20345;-66
2023/07/31 11:49:00;;;;;;;3.10;2.03;;;30.50;48.00;;;;;;4959582;28;20046;-60
2023/07/31 11:51:29;;;;;;;1.80;1.70;;;30.60;46.80;;;;;;4959346;28;20024;-65
2023/07/31 11:54:02;;;;;;;1.88;1.77;;;30.70;47.60;;;;;;4959220;28;20031;-62
2023/07/31 11:56:28;;;;;;;2.97;2.03;;;30.70;47.40;;;;;;4959743;28;20035;-62
2023/07/31 12:01:22;;;;;;;1.75;1.65;;;30.70;47.20;;;;;;4959928;29;20035;-61
2023/07/31 12:03:50;;;;;;;2.25;2.00;;;30.70;47.00;;;;;;4959420;28;20058;-60
2023/07/31 12:06:16;;;;;;;1.80;1.65;;;30.70;46.30;;;;;;4958218;29;20032;-60
2023/07/31 12:08:42;;;;;;;2.30;1.90;;;30.70;46.30;;;;;;4958749;28;20051;-61
2023/07/31 12:11:09;;;;;;;2.90;1.90;;;30.70;46.20;;;;;;4958526;28;20136;-61
2023/07/31 12:13:36;;;;;;;3.67;1.73;;;30.70;46.20;;;;;;4958083;29;20035;-62
2023/07/31 12:16:03;;;;;;;2.60;1.80;;;30.60;46.50;;;;;;4959407;28;20446;-62
2023/07/31 12:18:33;;;;;;;1.83;1.50;;;30.70;46.30;;;;;;4958798;28;20417;-62
2023/07/31 12:21:02;;;;;;;2.38;1.77;;;30.70;46.50;;;;;;4958749;28;20027;-60
2023/07/31 12:23:32;;;;;;;2.50;1.67;;;30.70;46.40;;;;;;4959231;28;20461;-64
2023/07/31 12:26:03;;;;;;;1.80;1.70;;;30.70;46.10;;;;;;4959256;28;20030;-58
2023/07/31 12:28:29;;;;;;;1.95;1.80;;;30.70;46.00;;;;;;4958620;28;20027;-60
2023/07/31 12:31:00;;;;;;;2.53;2.30;;;30.70;46.10;;;;;;4958550;28;20031;-65
2023/07/31 12:33:34;;;;;;;1.90;1.80;;;30.70;46.30;;;;;;4957567;29;20039;-59
2023/07/31 12:36:07;;;;;;;2.65;2.03;;;30.70;46.30;;;;;;4958446;28;20050;-62
2023/07/31 12:38:37;;;;;;;2.13;1.90;;;30.70;46.70;;;;;;4957595;29;20077;-61
2023/07/31 12:41:02;;;;;;;2.97;1.80;;;30.70;47.00;;;;;;4957576;29;20465;-60
2023/07/31 12:43:28;;;;;;;2.30;1.85;;;30.70;47.10;;;;;;4958671;28;20035;-65
2023/07/31 12:45:58;;;;;;;3.15;2.03;;;30.80;46.90;;;;;;4958606;28;20027;-60
2023/07/31 12:48:24;;;;;;;3.17;1.92;;;30.90;46.80;;;;;;4958099;28;20027;-64
2023/07/31 12:50:53;;;;;;;2.00;1.90;;;30.90;46.70;;;;;;4973341;28;20026;-63
2023/07/31 12:53:19;;;;;;;1.67;1.50;;;31.00;46.70;;;;;;4958699;28;20023;-63
2023/07/31 12:55:45;;;;;;;2.70;1.90;;;31.00;46.60;;;;;;4958133;28;20505;-59
2023/07/31 12:58:11;;;;;;;2.30;1.70;;;31.00;46.50;;;;;;4957976;29;20031;-61